Time;durP1;ratioP1;P1;durP2;ratioP2;P2;SDS_P1;SDS_P2;PMS_P1;PMS_P2;Temp;Humidity;BMP_temperature;BMP_pressure;BME280_temperature;BME280_humidity;BME280_pressure;Samples;Min_cycle;Max_cycle;Signal;HPM_P1;HPM_P2
2021/10/30 00:00:02;;;;;;;7.6;7.0;;;;;;;12.4;81.4;100330;;;;
2021/10/30 00:02:02;;;;;;;7.6;7.0;;;;;;;12.3;81.4;100330;;;;
2021/10/30 00:04:02;;;;;;;7.6;7.0;;;;;;;12.4;81.7;100340;;;;
2021/10/30 00:06:02;;;;;;;7.6;7.0;;;;;;;12.2;82.4;100340;;;;
2021/10/30 00:08:02;;;;;;;7.6;7.0;;;;;;;12.3;82.2;100330;;;;
2021/10/30 00:18:02;;;;;;;9.9;8.9;;;;;;;12.4;81.4;100320;;;;
2021/10/30 00:20:02;;;;;;;9.9;8.9;;;;;;;12.3;81.3;100320;;;;
2021/10/30 00:28:02;;;;;;;9.9;8.9;;;;;;;12.2;83.1;100320;;;;
2021/10/30 00:32:02;;;;;;;9.9;8.9;;;;;;;12.4;82.3;100310;;;;
2021/10/30 00:40:02;;;;;;;9.3;8.4;;;;;;;12.3;82.0;100300;;;;
2021/10/30 00:44:02;;;;;;;9.3;8.4;;;;;;;12.5;81.8;100290;;;;
2021/10/30 00:46:02;;;;;;;9.3;8.4;;;;;;;12.4;81.4;100290;;;;
2021/10/30 00:50:02;;;;;;;9.3;8.4;;;;;;;12.3;82.2;100290;;;;
2021/10/30 00:56:02;;;;;;;9.5;8.6;;;;;;;12.4;81.8;100280;;;;
2021/10/30 00:58:02;;;;;;;9.5;8.6;;;;;;;12.2;81.5;100290;;;;
2021/10/30 01:00:02;;;;;;;9.5;8.6;;;;;;;12.3;81.8;100290;;;;
2021/10/30 01:02:02;;;;;;;9.5;8.6;;;;;;;12.2;82.3;100280;;;;
2021/10/30 01:08:02;;;;;;;9.5;8.6;;;;;;;12.1;81.4;100270;;;;
2021/10/30 01:10:02;;;;;;;9.5;8.6;;;;;;;12.2;82.0;100280;;;;
2021/10/30 01:16:02;;;;;;;8.8;7.9;;;;;;;12.1;81.2;100280;;;;
2021/10/30 01:24:02;;;;;;;8.8;7.9;;;;;;;12.2;82.3;100260;;;;
2021/10/30 01:26:02;;;;;;;8.8;7.9;;;;;;;12.1;81.5;100260;;;;
2021/10/30 01:28:02;;;;;;;8.8;7.9;;;;;;;12.0;81.4;100260;;;;
2021/10/30 01:30:02;;;;;;;8.8;7.9;;;;;;;12.1;81.5;100260;;;;
2021/10/30 01:32:02;;;;;;;8.8;7.9;;;;;;;11.9;81.4;100260;;;;
2021/10/30 01:34:02;;;;;;;8.8;7.9;;;;;;;12.0;81.6;100260;;;;
2021/10/30 01:36:02;;;;;;;9.0;8.3;;;;;;;12.1;81.2;100260;;;;
2021/10/30 01:38:02;;;;;;;9.0;8.3;;;;;;;12.0;81.5;100260;;;;
2021/10/30 01:40:02;;;;;;;9.0;8.3;;;;;;;12.1;81.5;100250;;;;
2021/10/30 01:42:02;;;;;;;9.0;8.3;;;;;;;12.0;80.8;100250;;;;
2021/10/30 01:46:02;;;;;;;9.0;8.3;;;;;;;12.2;81.9;100250;;;;
2021/10/30 01:48:03;;;;;;;9.0;8.3;;;;;;;12.0;80.8;100250;;;;
2021/10/30 01:54:02;;;;;;;9.0;8.3;;;;;;;11.9;80.9;100240;;;;
2021/10/30 01:56:02;;;;;;;9.6;8.7;;;;;;;12.0;81.0;100240;;;;
2021/10/30 01:58:02;;;;;;;9.6;8.7;;;;;;;11.9;80.9;100230;;;;
2021/10/30 02:04:02;;;;;;;9.6;8.7;;;;;;;12.0;82.1;100220;;;;
2021/10/30 02:10:03;;;;;;;9.6;8.7;;;;;;;11.9;82.3;100220;;;;
2021/10/30 02:14:02;;;;;;;9.6;8.7;;;;;;;12.1;82.3;100210;;;;
2021/10/30 02:16:02;;;;;;;8.7;7.9;;;;;;;12.0;82.1;100210;;;;
2021/10/30 02:20:02;;;;;;;8.7;7.9;;;;;;;12.1;81.8;100200;;;;
2021/10/30 02:32:02;;;;;;;8.7;7.9;;;;;;;12.2;82.3;100170;;;;
2021/10/30 02:36:02;;;;;;;8.5;7.7;;;;;;;12.3;82.0;100160;;;;
2021/10/30 02:40:02;;;;;;;8.5;7.7;;;;;;;12.2;81.2;100150;;;;
2021/10/30 02:42:02;;;;;;;8.5;7.7;;;;;;;12.3;82.5;100150;;;;
2021/10/30 02:44:02;;;;;;;8.5;7.7;;;;;;;12.2;82.4;100160;;;;
2021/10/30 02:46:02;;;;;;;8.5;7.7;;;;;;;12.3;82.0;100150;;;;
2021/10/30 02:56:02;;;;;;;9.2;8.4;;;;;;;12.4;82.1;100140;;;;
2021/10/30 02:58:02;;;;;;;9.2;8.4;;;;;;;12.2;82.5;100150;;;;
2021/10/30 03:02:02;;;;;;;9.2;8.4;;;;;;;12.3;81.5;100140;;;;
2021/10/30 03:04:02;;;;;;;9.2;8.4;;;;;;;12.4;81.7;100120;;;;
2021/10/30 03:06:02;;;;;;;9.2;8.4;;;;;;;12.5;81.8;100120;;;;
2021/10/30 03:08:02;;;;;;;9.2;8.4;;;;;;;12.3;82.9;100120;;;;
2021/10/30 03:10:02;;;;;;;9.2;8.4;;;;;;;12.2;83.1;100120;;;;
2021/10/30 03:12:03;;;;;;;9.2;8.4;;;;;;;12.3;82.7;100120;;;;
2021/10/30 03:14:02;;;;;;;9.2;8.4;;;;;;;12.4;82.8;100110;;;;
2021/10/30 03:22:02;;;;;;;9.7;8.8;;;;;;;12.3;82.5;100110;;;;
2021/10/30 03:32:02;;;;;;;9.7;8.8;;;;;;;12.2;82.7;100100;;;;
2021/10/30 03:36:02;;;;;;;9.1;8.3;;;;;;;12.3;81.8;100110;;;;
2021/10/30 03:40:02;;;;;;;9.1;8.3;;;;;;;12.4;81.8;100090;;;;
2021/10/30 03:44:02;;;;;;;9.1;8.3;;;;;;;12.3;82.0;100080;;;;
2021/10/30 03:56:02;;;;;;;9.6;8.6;;;;;;;12.4;81.8;100060;;;;
2021/10/30 04:06:02;;;;;;;9.6;8.6;;;;;;;12.3;81.5;100060;;;;
2021/10/30 04:08:03;;;;;;;9.6;8.6;;;;;;;12.4;81.5;100060;;;;
2021/10/30 04:12:02;;;;;;;9.6;8.6;;;;;;;12.3;81.7;100060;;;;
2021/10/30 04:14:02;;;;;;;9.6;8.6;;;;;;;12.2;82.2;100060;;;;
2021/10/30 04:16:02;;;;;;;10.3;9.2;;;;;;;12.1;82.7;100060;;;;
2021/10/30 04:18:02;;;;;;;10.3;9.2;;;;;;;12.2;82.2;100060;;;;
2021/10/30 04:24:02;;;;;;;10.3;9.2;;;;;;;12.3;81.6;100060;;;;
2021/10/30 04:28:02;;;;;;;10.3;9.2;;;;;;;12.2;81.7;100050;;;;
2021/10/30 04:32:04;;;;;;;10.3;9.2;;;;;;;12.1;82.1;100050;;;;
2021/10/30 04:34:04;;;;;;;10.3;9.2;;;;;;;12.2;82.1;100050;;;;
2021/10/30 04:36:04;;;;;;;9.8;8.7;;;;;;;12.1;82.1;100050;;;;
2021/10/30 04:40:02;;;;;;;9.8;8.7;;;;;;;12.0;82.3;100040;;;;
2021/10/30 04:42:02;;;;;;;9.8;8.7;;;;;;;12.1;82.0;100040;;;;
2021/10/30 04:44:02;;;;;;;9.8;8.7;;;;;;;12.2;81.1;100050;;;;
2021/10/30 04:46:02;;;;;;;9.8;8.7;;;;;;;12.1;81.1;100050;;;;
2021/10/30 04:48:02;;;;;;;9.8;8.7;;;;;;;12.2;81.2;100050;;;;
2021/10/30 04:52:02;;;;;;;9.8;8.7;;;;;;;12.3;80.6;100040;;;;
2021/10/30 04:54:02;;;;;;;9.8;8.7;;;;;;;12.2;80.7;100040;;;;
2021/10/30 05:00:02;;;;;;;13.1;9.1;;;;;;;12.1;81.1;100030;;;;
2021/10/30 05:04:02;;;;;;;13.1;9.1;;;;;;;12.2;80.9;100030;;;;
2021/10/30 05:06:02;;;;;;;13.1;9.1;;;;;;;12.1;81.1;100020;;;;
2021/10/30 05:10:02;;;;;;;13.1;9.1;;;;;;;12.0;81.7;100020;;;;
2021/10/30 05:12:02;;;;;;;13.1;9.1;;;;;;;12.1;81.6;100020;;;;
2021/10/30 05:18:02;;;;;;;11.2;9.2;;;;;;;12.0;81.5;100010;;;;
2021/10/30 05:20:02;;;;;;;11.2;9.2;;;;;;;12.1;81.6;100010;;;;
2021/10/30 05:24:02;;;;;;;11.2;9.2;;;;;;;11.9;82.3;100000;;;;
2021/10/30 05:26:02;;;;;;;11.2;9.2;;;;;;;12.0;82.6;100000;;;;
2021/10/30 05:28:02;;;;;;;11.2;9.2;;;;;;;11.9;82.5;100000;;;;
2021/10/30 05:40:06;;;;;;;10.5;8.3;;;;;;;11.8;82.8;99960;;;;
2021/10/30 05:46:02;;;;;;;10.5;8.3;;;;;;;11.9;83.1;99960;;;;
2021/10/30 05:50:02;;;;;;;10.5;8.3;;;;;;;11.8;83.0;99950;;;;
2021/10/30 06:04:02;;;;;;;10.1;8.4;;;;;;;11.7;84.1;99950;;;;
2021/10/30 06:08:02;;;;;;;10.1;8.4;;;;;;;11.6;84.8;99950;;;;
2021/10/30 06:10:02;;;;;;;10.1;8.4;;;;;;;11.7;84.7;99950;;;;
2021/10/30 06:12:02;;;;;;;10.1;8.4;;;;;;;11.5;85.1;99960;;;;
2021/10/30 06:14:04;;;;;;;10.1;8.4;;;;;;;11.6;85.2;99960;;;;
2021/10/30 06:18:02;;;;;;;11.5;9.9;;;;;;;11.5;85.5;99960;;;;
2021/10/30 06:20:02;;;;;;;11.5;9.9;;;;;;;11.6;85.5;99960;;;;
2021/10/30 06:26:02;;;;;;;11.5;9.9;;;;;;;11.5;85.7;99960;;;;
2021/10/30 06:30:02;;;;;;;11.5;9.9;;;;;;;11.6;85.9;99970;;;;
2021/10/30 06:32:02;;;;;;;11.5;9.9;;;;;;;11.5;85.9;99960;;;;
2021/10/30 06:44:02;;;;;;;14.0;10.5;;;;;;;11.4;87.0;99940;;;;
2021/10/30 06:48:02;;;;;;;14.0;10.5;;;;;;;11.7;86.3;99930;;;;
2021/10/30 06:52:04;;;;;;;14.0;10.5;;;;;;;11.6;86.4;99950;;;;
2021/10/30 06:54:02;;;;;;;14.0;10.5;;;;;;;11.5;86.6;99950;;;;
2021/10/30 06:56:02;;;;;;;11.9;10.6;;;;;;;11.4;87.1;99940;;;;
2021/10/30 06:58:02;;;;;;;11.9;10.6;;;;;;;11.5;87.1;99940;;;;
2021/10/30 07:02:02;;;;;;;11.9;10.6;;;;;;;11.6;86.7;99930;;;;
2021/10/30 07:04:02;;;;;;;11.9;10.6;;;;;;;11.5;86.5;99930;;;;
2021/10/30 07:06:02;;;;;;;11.9;10.6;;;;;;;11.6;86.6;99940;;;;
2021/10/30 07:08:02;;;;;;;11.9;10.6;;;;;;;11.5;86.8;99930;;;;
2021/10/30 07:10:02;;;;;;;11.9;10.6;;;;;;;11.6;86.6;99930;;;;
2021/10/30 07:14:02;;;;;;;11.9;10.6;;;;;;;11.5;86.8;99920;;;;
2021/10/30 07:18:02;;;;;;;12.2;10.6;;;;;;;11.6;86.9;99920;;;;
2021/10/30 07:24:02;;;;;;;12.2;10.6;;;;;;;11.7;86.6;99900;;;;
2021/10/30 07:26:02;;;;;;;12.2;10.6;;;;;;;11.6;87.0;99910;;;;
2021/10/30 07:30:02;;;;;;;12.2;10.6;;;;;;;11.5;87.1;99920;;;;
2021/10/30 07:34:02;;;;;;;12.2;10.6;;;;;;;11.6;87.1;99910;;;;
2021/10/30 07:36:02;;;;;;;10.6;9.6;;;;;;;11.7;86.5;99910;;;;
2021/10/30 07:40:02;;;;;;;10.6;9.6;;;;;;;11.6;87.1;99900;;;;
2021/10/30 07:42:02;;;;;;;10.6;9.6;;;;;;;11.5;87.4;99900;;;;
2021/10/30 07:44:02;;;;;;;10.6;9.6;;;;;;;11.6;87.2;99900;;;;
2021/10/30 07:46:02;;;;;;;10.6;9.6;;;;;;;11.7;87.3;99900;;;;
2021/10/30 07:50:02;;;;;;;10.6;9.6;;;;;;;11.8;86.9;99900;;;;
2021/10/30 07:52:02;;;;;;;10.6;9.6;;;;;;;11.7;86.8;99890;;;;
2021/10/30 07:56:02;;;;;;;11.1;8.6;;;;;;;11.8;86.8;99900;;;;
2021/10/30 08:00:02;;;;;;;11.1;8.6;;;;;;;11.7;87.0;99900;;;;
2021/10/30 08:04:02;;;;;;;11.1;8.6;;;;;;;11.8;87.2;99900;;;;
2021/10/30 08:12:02;;;;;;;11.1;8.6;;;;;;;11.9;87.3;99890;;;;
2021/10/30 08:18:02;;;;;;;9.7;8.6;;;;;;;11.8;86.9;99880;;;;
2021/10/30 08:26:02;;;;;;;9.7;8.6;;;;;;;11.9;87.2;99880;;;;
2021/10/30 08:32:02;;;;;;;9.7;8.6;;;;;;;12.0;86.6;99880;;;;
2021/10/30 08:38:02;;;;;;;8.5;7.8;;;;;;;12.1;86.5;99880;;;;
2021/10/30 08:42:02;;;;;;;8.5;7.8;;;;;;;12.0;86.7;99860;;;;
2021/10/30 08:44:02;;;;;;;8.5;7.8;;;;;;;12.1;86.5;99860;;;;
2021/10/30 08:48:02;;;;;;;8.5;7.8;;;;;;;12.0;87.1;99870;;;;
2021/10/30 08:56:04;;;;;;;9.0;7.8;;;;;;;12.1;87.2;99860;;;;
2021/10/30 08:58:02;;;;;;;9.0;7.8;;;;;;;12.2;87.1;99860;;;;
2021/10/30 09:10:02;;;;;;;9.0;7.8;;;;;;;12.1;87.4;99860;;;;
2021/10/30 09:12:03;;;;;;;9.0;7.8;;;;;;;12.3;87.3;99860;;;;
2021/10/30 09:16:02;;;;;;;8.5;7.7;;;;;;;12.4;86.9;99860;;;;
2021/10/30 09:18:02;;;;;;;8.5;7.7;;;;;;;12.3;87.3;99870;;;;
2021/10/30 09:24:03;;;;;;;8.5;7.7;;;;;;;12.4;86.8;99860;;;;
2021/10/30 09:30:02;;;;;;;8.5;7.7;;;;;;;12.3;87.1;99860;;;;
2021/10/30 09:32:02;;;;;;;8.5;7.7;;;;;;;12.4;87.0;99860;;;;
2021/10/30 09:44:03;;;;;;;8.0;7.2;;;;;;;12.3;87.7;99860;;;;
2021/10/30 09:46:02;;;;;;;8.0;7.2;;;;;;;12.4;87.8;99860;;;;
2021/10/30 09:56:02;;;;;;;8.6;7.7;;;;;;;12.5;88.2;99850;;;;
2021/10/30 10:06:02;;;;;;;8.6;7.7;;;;;;;12.6;88.0;99850;;;;
2021/10/30 10:14:02;;;;;;;7.6;6.9;;;;;;;12.5;88.5;99850;;;;
2021/10/30 10:16:02;;;;;;;7.6;6.9;;;;;;;12.6;88.7;99840;;;;
2021/10/30 10:18:02;;;;;;;7.6;6.9;;;;;;;12.5;88.5;99840;;;;
2021/10/30 10:22:02;;;;;;;7.6;6.9;;;;;;;12.6;88.3;99840;;;;
2021/10/30 10:26:03;;;;;;;7.6;6.9;;;;;;;12.7;88.3;99840;;;;
2021/10/30 10:28:02;;;;;;;7.6;6.9;;;;;;;12.6;88.7;99840;;;;
2021/10/30 10:40:04;;;;;;;9.4;7.6;;;;;;;12.7;88.9;99820;;;;
2021/10/30 10:50:02;;;;;;;9.4;7.6;;;;;;;12.6;89.2;99820;;;;
2021/10/30 10:52:05;;;;;;;9.4;7.6;;;;;;;12.7;89.3;99820;;;;
2021/10/30 10:54:02;;;;;;;7.9;6.8;;;;;;;12.8;88.6;99810;;;;
2021/10/30 11:00:02;;;;;;;7.9;6.8;;;;;;;12.7;88.9;99810;;;;
2021/10/30 11:04:02;;;;;;;7.9;6.8;;;;;;;12.6;89.2;99810;;;;
2021/10/30 11:06:03;;;;;;;7.9;6.8;;;;;;;12.7;89.3;99800;;;;
2021/10/30 11:10:02;;;;;;;7.9;6.8;;;;;;;12.8;88.7;99790;;;;
2021/10/30 11:14:02;;;;;;;6.8;6.1;;;;;;;12.9;89.0;99780;;;;
2021/10/30 11:16:03;;;;;;;6.8;6.1;;;;;;;13.0;88.7;99780;;;;
2021/10/30 11:18:06;;;;;;;6.8;6.1;;;;;;;12.9;88.6;99780;;;;
2021/10/30 11:22:02;;;;;;;6.8;6.1;;;;;;;13.0;88.9;99780;;;;
2021/10/30 11:28:02;;;;;;;6.8;6.1;;;;;;;12.9;88.4;99780;;;;
2021/10/30 11:32:02;;;;;;;6.8;6.1;;;;;;;13.1;88.7;99780;;;;
2021/10/30 11:40:02;;;;;;;5.8;4.8;;;;;;;13.0;87.9;99770;;;;
2021/10/30 11:44:03;;;;;;;5.8;4.8;;;;;;;13.2;88.2;99770;;;;
2021/10/30 11:46:02;;;;;;;5.8;4.8;;;;;;;13.1;87.8;99770;;;;
2021/10/30 12:00:03;;;;;;;5.0;4.5;;;;;;;13.2;87.8;99750;;;;
2021/10/30 12:02:02;;;;;;;5.0;4.5;;;;;;;13.3;87.0;99750;;;;
2021/10/30 12:06:02;;;;;;;5.0;4.5;;;;;;;13.4;87.2;99740;;;;
2021/10/30 12:10:02;;;;;;;5.0;4.5;;;;;;;13.3;87.0;99740;;;;
2021/10/30 12:12:03;;;;;;;5.0;4.5;;;;;;;13.4;87.6;99740;;;;
2021/10/30 12:14:02;;;;;;;4.8;4.0;;;;;;;13.5;87.1;99730;;;;
2021/10/30 12:18:02;;;;;;;4.8;4.0;;;;;;;13.6;86.7;99730;;;;
2021/10/30 12:20:02;;;;;;;4.8;4.0;;;;;;;13.7;86.7;99730;;;;
2021/10/30 12:22:02;;;;;;;4.8;4.0;;;;;;;13.8;86.3;99730;;;;
2021/10/30 12:24:02;;;;;;;4.8;4.0;;;;;;;13.7;86.1;99730;;;;
2021/10/30 12:36:02;;;;;;;4.4;4.0;;;;;;;13.8;85.3;99710;;;;
2021/10/30 12:38:02;;;;;;;4.4;4.0;;;;;;;13.7;85.7;99700;;;;
2021/10/30 12:42:02;;;;;;;4.4;4.0;;;;;;;13.8;84.6;99710;;;;
2021/10/30 12:44:02;;;;;;;4.4;4.0;;;;;;;13.7;84.4;99700;;;;
2021/10/30 12:46:03;;;;;;;4.4;4.0;;;;;;;13.8;85.0;99690;;;;
2021/10/30 12:54:04;;;;;;;3.8;3.2;;;;;;;13.9;84.6;99680;;;;
2021/10/30 13:00:02;;;;;;;3.8;3.2;;;;;;;13.8;83.5;99680;;;;
2021/10/30 13:02:04;;;;;;;3.8;3.2;;;;;;;13.9;83.2;99680;;;;
2021/10/30 13:06:02;;;;;;;3.8;3.2;;;;;;;13.8;82.9;99680;;;;
2021/10/30 13:08:02;;;;;;;3.8;3.2;;;;;;;13.7;83.2;99670;;;;
2021/10/30 13:10:04;;;;;;;3.8;3.2;;;;;;;13.6;83.0;99680;;;;
2021/10/30 13:16:02;;;;;;;2.3;2.1;;;;;;;13.7;83.1;99680;;;;
2021/10/30 13:24:02;;;;;;;2.3;2.1;;;;;;;13.8;82.6;99670;;;;
2021/10/30 13:28:02;;;;;;;2.3;2.1;;;;;;;13.7;82.4;99680;;;;
2021/10/30 13:32:02;;;;;;;2.3;2.1;;;;;;;13.8;82.9;99680;;;;
2021/10/30 13:40:02;;;;;;;2.2;1.8;;;;;;;13.9;82.9;99680;;;;
2021/10/30 13:44:03;;;;;;;2.2;1.8;;;;;;;14.0;83.1;99680;;;;
2021/10/30 13:46:03;;;;;;;2.2;1.8;;;;;;;13.9;82.7;99680;;;;
2021/10/30 13:50:02;;;;;;;2.2;1.8;;;;;;;14.1;82.8;99670;;;;
2021/10/30 14:08:02;;;;;;;2.3;1.9;;;;;;;14.0;81.6;99680;;;;
2021/10/30 14:10:02;;;;;;;2.3;1.9;;;;;;;13.9;81.2;99680;;;;
2021/10/30 14:18:02;;;;;;;2.5;1.6;;;;;;;14.0;81.8;99690;;;;
2021/10/30 14:20:02;;;;;;;2.5;1.6;;;;;;;13.9;81.3;99690;;;;
2021/10/30 14:22:02;;;;;;;2.5;1.6;;;;;;;13.8;81.7;99690;;;;
2021/10/30 14:24:04;;;;;;;2.5;1.6;;;;;;;13.9;81.7;99700;;;;
2021/10/30 14:34:02;;;;;;;2.2;1.7;;;;;;;14.0;81.2;99700;;;;
2021/10/30 14:36:02;;;;;;;2.2;1.7;;;;;;;13.9;81.1;99710;;;;
2021/10/30 14:38:03;;;;;;;2.2;1.7;;;;;;;14.0;81.2;99710;;;;
2021/10/30 14:48:02;;;;;;;2.2;1.7;;;;;;;14.1;81.0;99710;;;;
2021/10/30 14:50:02;;;;;;;2.2;1.7;;;;;;;13.9;81.1;99710;;;;
2021/10/30 14:54:02;;;;;;;2.7;1.9;;;;;;;14.1;81.4;99710;;;;
2021/10/30 15:00:02;;;;;;;2.7;1.9;;;;;;;14.2;80.5;99710;;;;
2021/10/30 15:06:03;;;;;;;2.7;1.9;;;;;;;14.3;80.1;99720;;;;
2021/10/30 15:08:05;;;;;;;2.7;1.9;;;;;;;14.2;80.4;99710;;;;
2021/10/30 15:14:02;;;;;;;2.1;1.9;;;;;;;14.1;80.5;99710;;;;
2021/10/30 15:16:02;;;;;;;2.1;1.9;;;;;;;14.0;80.2;99710;;;;
2021/10/30 15:20:02;;;;;;;2.1;1.9;;;;;;;14.1;80.2;99710;;;;
2021/10/30 15:24:02;;;;;;;2.1;1.9;;;;;;;14.0;80.6;99710;;;;
2021/10/30 15:26:05;;;;;;;2.1;1.9;;;;;;;14.1;80.1;99710;;;;
2021/10/30 15:32:02;;;;;;;2.1;1.9;;;;;;;14.0;80.3;99720;;;;
2021/10/30 15:38:02;;;;;;;14.9;7.9;;;;;;;14.1;80.2;99730;;;;
2021/10/30 15:40:02;;;;;;;14.9;7.9;;;;;;;14.0;80.1;99730;;;;
2021/10/30 15:42:02;;;;;;;14.9;7.9;;;;;;;13.9;80.4;99730;;;;
2021/10/30 15:44:02;;;;;;;14.9;7.9;;;;;;;14.0;80.1;99740;;;;
2021/10/30 15:46:03;;;;;;;14.9;7.9;;;;;;;14.1;80.4;99730;;;;
2021/10/30 15:50:02;;;;;;;14.9;7.9;;;;;;;14.0;80.0;99740;;;;
2021/10/30 15:52:02;;;;;;;14.9;7.9;;;;;;;14.1;79.8;99740;;;;
2021/10/30 15:54:02;;;;;;;2.8;2.1;;;;;;;14.0;80.2;99740;;;;
2021/10/30 15:58:02;;;;;;;2.8;2.1;;;;;;;13.9;80.5;99750;;;;
2021/10/30 16:00:02;;;;;;;2.8;2.1;;;;;;;14.0;80.3;99750;;;;
2021/10/30 16:02:03;;;;;;;2.8;2.1;;;;;;;13.9;80.4;99750;;;;
2021/10/30 16:14:04;;;;;;;1.7;1.6;;;;;;;14.0;80.7;99770;;;;
2021/10/30 16:18:02;;;;;;;1.7;1.6;;;;;;;13.9;81.2;99770;;;;
2021/10/30 16:24:02;;;;;;;1.7;1.6;;;;;;;13.8;81.8;99780;;;;
2021/10/30 16:28:02;;;;;;;1.7;1.6;;;;;;;13.7;82.1;99780;;;;
2021/10/30 16:30:06;;;;;;;1.7;1.6;;;;;;;13.8;82.0;99780;;;;
2021/10/30 16:32:02;;;;;;;1.7;1.6;;;;;;;13.7;81.6;99780;;;;
2021/10/30 16:34:06;;;;;;;2.3;1.8;;;;;;;13.8;81.6;99790;;;;
2021/10/30 16:36:03;;;;;;;2.3;1.8;;;;;;;13.7;82.0;99790;;;;
2021/10/30 16:38:02;;;;;;;2.3;1.8;;;;;;;13.6;82.2;99790;;;;
2021/10/30 16:40:02;;;;;;;2.3;1.8;;;;;;;13.7;82.0;99790;;;;
2021/10/30 16:42:02;;;;;;;2.3;1.8;;;;;;;13.6;82.2;99790;;;;
2021/10/30 16:44:02;;;;;;;2.3;1.8;;;;;;;13.7;82.2;99800;;;;
2021/10/30 16:48:02;;;;;;;2.3;1.8;;;;;;;13.8;82.3;99800;;;;
2021/10/30 16:52:02;;;;;;;2.3;1.8;;;;;;;13.7;82.9;99810;;;;
2021/10/30 16:56:02;;;;;;;3.9;2.1;;;;;;;13.6;83.6;99820;;;;
2021/10/30 17:00:02;;;;;;;3.9;2.1;;;;;;;13.5;84.1;99820;;;;
2021/10/30 17:04:02;;;;;;;3.9;2.1;;;;;;;13.6;84.1;99830;;;;
2021/10/30 17:08:02;;;;;;;3.9;2.1;;;;;;;13.5;84.9;99840;;;;
2021/10/30 17:10:02;;;;;;;3.9;2.1;;;;;;;13.4;85.4;99840;;;;
2021/10/30 17:16:03;;;;;;;3.1;2.5;;;;;;;13.5;85.3;99850;;;;
2021/10/30 17:22:03;;;;;;;3.1;2.5;;;;;;;13.4;85.2;99850;;;;
2021/10/30 17:24:02;;;;;;;3.1;2.5;;;;;;;13.5;85.2;99850;;;;
2021/10/30 17:26:03;;;;;;;3.1;2.5;;;;;;;13.4;85.1;99860;;;;
2021/10/30 17:28:02;;;;;;;3.1;2.5;;;;;;;13.5;85.2;99860;;;;
2021/10/30 17:30:02;;;;;;;3.1;2.5;;;;;;;13.4;85.3;99850;;;;
2021/10/30 17:34:02;;;;;;;3.2;2.9;;;;;;;13.5;84.9;99860;;;;
2021/10/30 17:36:02;;;;;;;3.2;2.9;;;;;;;13.4;85.8;99860;;;;
2021/10/30 17:44:03;;;;;;;3.2;2.9;;;;;;;13.5;85.8;99860;;;;
2021/10/30 17:46:03;;;;;;;3.2;2.9;;;;;;;13.4;85.9;99870;;;;
2021/10/30 17:50:02;;;;;;;3.2;2.9;;;;;;;13.5;86.0;99870;;;;
2021/10/30 17:54:02;;;;;;;3.7;3.4;;;;;;;13.4;86.0;99880;;;;
2021/10/30 17:56:04;;;;;;;3.7;3.4;;;;;;;13.5;85.4;99890;;;;
2021/10/30 17:58:02;;;;;;;3.7;3.4;;;;;;;13.4;85.9;99880;;;;
2021/10/30 18:10:02;;;;;;;3.7;3.4;;;;;;;13.3;86.3;99900;;;;
2021/10/30 18:22:02;;;;;;;4.2;3.9;;;;;;;13.2;87.7;99940;;;;
2021/10/30 18:24:02;;;;;;;4.2;3.9;;;;;;;13.3;87.4;99940;;;;
2021/10/30 18:36:02;;;;;;;4.8;4.4;;;;;;;13.4;86.5;99960;;;;
2021/10/30 18:44:02;;;;;;;4.8;4.4;;;;;;;13.3;86.4;99970;;;;
2021/10/30 18:46:02;;;;;;;4.8;4.4;;;;;;;13.2;87.0;99960;;;;
2021/10/30 18:48:02;;;;;;;4.8;4.4;;;;;;;13.4;86.6;99960;;;;
2021/10/30 18:50:02;;;;;;;4.8;4.4;;;;;;;13.3;86.5;99970;;;;
2021/10/30 18:56:02;;;;;;;7.1;6.5;;;;;;;13.2;86.3;99980;;;;
2021/10/30 19:04:02;;;;;;;7.1;6.5;;;;;;;13.1;86.4;99980;;;;
2021/10/30 19:14:03;;;;;;;6.5;5.4;;;;;;;13.2;86.3;100000;;;;
2021/10/30 19:16:03;;;;;;;6.5;5.4;;;;;;;13.1;85.8;100000;;;;
2021/10/30 19:26:03;;;;;;;6.5;5.4;;;;;;;13.0;85.8;100010;;;;
2021/10/30 19:30:02;;;;;;;6.5;5.4;;;;;;;13.1;86.5;100030;;;;
2021/10/30 19:32:03;;;;;;;6.5;5.4;;;;;;;13.0;86.4;100030;;;;
2021/10/30 19:42:02;;;;;;;7.1;6.6;;;;;;;12.9;86.5;100050;;;;
2021/10/30 19:46:03;;;;;;;7.1;6.6;;;;;;;12.8;86.5;100060;;;;
2021/10/30 19:52:02;;;;;;;7.1;6.6;;;;;;;12.9;86.4;100070;;;;
2021/10/30 19:58:02;;;;;;;6.9;6.3;;;;;;;13.0;86.3;100070;;;;
2021/10/30 20:00:05;;;;;;;6.9;6.3;;;;;;;12.9;86.0;100080;;;;
2021/10/30 20:04:02;;;;;;;6.9;6.3;;;;;;;12.8;86.3;100090;;;;
2021/10/30 20:12:02;;;;;;;6.9;6.3;;;;;;;12.9;86.8;100090;;;;
2021/10/30 20:14:09;;;;;;;7.2;6.6;;;;;;;12.8;86.9;100090;;;;
2021/10/30 20:18:02;;;;;;;7.2;6.6;;;;;;;12.7;86.8;100100;;;;
2021/10/30 20:28:02;;;;;;;7.2;6.6;;;;;;;12.6;86.4;100120;;;;
2021/10/30 20:32:02;;;;;;;7.7;7.0;;;;;;;12.7;86.0;100130;;;;
2021/10/30 20:34:02;;;;;;;7.7;7.0;;;;;;;12.6;86.1;100130;;;;
2021/10/30 20:38:04;;;;;;;7.7;7.0;;;;;;;12.5;86.3;100140;;;;
2021/10/30 20:40:02;;;;;;;7.7;7.0;;;;;;;12.4;86.6;100140;;;;
2021/10/30 20:50:02;;;;;;;7.7;7.0;;;;;;;12.3;86.5;100170;;;;
2021/10/30 20:58:02;;;;;;;25.4;19.0;;;;;;;12.2;86.8;100160;;;;
2021/10/30 21:04:02;;;;;;;25.4;19.0;;;;;;;12.4;86.0;100170;;;;
2021/10/30 21:06:03;;;;;;;25.4;19.0;;;;;;;12.3;86.0;100180;;;;
2021/10/30 21:08:02;;;;;;;25.4;19.0;;;;;;;12.2;86.0;100180;;;;
2021/10/30 21:20:02;;;;;;;9.8;8.9;;;;;;;12.1;86.1;100210;;;;
2021/10/30 21:22:02;;;;;;;9.8;8.9;;;;;;;12.2;86.2;100210;;;;
2021/10/30 21:24:02;;;;;;;9.8;8.9;;;;;;;12.1;86.5;100210;;;;
2021/10/30 21:28:02;;;;;;;9.8;8.9;;;;;;;12.0;86.4;100210;;;;
2021/10/30 21:32:02;;;;;;;12.7;11.5;;;;;;;12.1;86.2;100210;;;;
2021/10/30 21:34:03;;;;;;;12.7;11.5;;;;;;;12.0;86.6;100220;;;;
2021/10/30 21:36:03;;;;;;;12.7;11.5;;;;;;;12.1;86.4;100220;;;;
2021/10/30 21:38:02;;;;;;;12.7;11.5;;;;;;;12.0;86.4;100220;;;;
2021/10/30 21:46:03;;;;;;;12.7;11.5;;;;;;;11.9;86.2;100220;;;;
2021/10/30 21:52:02;;;;;;;11.5;9.9;;;;;;;12.0;86.2;100230;;;;
2021/10/30 21:54:02;;;;;;;11.5;9.9;;;;;;;11.9;86.5;100230;;;;
2021/10/30 21:58:02;;;;;;;11.5;9.9;;;;;;;11.8;86.8;100240;;;;
2021/10/30 22:08:02;;;;;;;11.5;9.9;;;;;;;11.7;86.7;100250;;;;
2021/10/30 22:10:02;;;;;;;11.5;9.9;;;;;;;11.8;86.8;100250;;;;
2021/10/30 22:12:02;;;;;;;12.4;11.2;;;;;;;11.9;86.0;100250;;;;
2021/10/30 22:14:07;;;;;;;12.4;11.2;;;;;;;11.7;86.3;100260;;;;
2021/10/30 22:16:02;;;;;;;12.4;11.2;;;;;;;11.8;86.5;100260;;;;
2021/10/30 22:18:02;;;;;;;12.4;11.2;;;;;;;11.7;86.5;100270;;;;
2021/10/30 22:20:02;;;;;;;12.4;11.2;;;;;;;11.8;86.0;100270;;;;
2021/10/30 22:24:02;;;;;;;12.4;11.2;;;;;;;11.7;86.5;100280;;;;
2021/10/30 22:30:02;;;;;;;12.4;11.2;;;;;;;11.6;86.7;100290;;;;
2021/10/30 22:32:03;;;;;;;14.8;11.0;;;;;;;11.7;86.8;100290;;;;
2021/10/30 22:34:02;;;;;;;14.8;11.0;;;;;;;11.6;86.8;100290;;;;
2021/10/30 22:36:02;;;;;;;14.8;11.0;;;;;;;11.7;86.4;100290;;;;
2021/10/30 22:38:02;;;;;;;14.8;11.0;;;;;;;11.5;86.4;100290;;;;
2021/10/30 22:40:02;;;;;;;14.8;11.0;;;;;;;11.6;86.5;100300;;;;
2021/10/30 22:42:02;;;;;;;14.8;11.0;;;;;;;11.5;86.5;100310;;;;
2021/10/30 22:44:02;;;;;;;14.8;11.0;;;;;;;11.6;86.5;100300;;;;
2021/10/30 22:48:02;;;;;;;14.8;11.0;;;;;;;11.5;86.5;100310;;;;
2021/10/30 22:52:02;;;;;;;11.9;10.4;;;;;;;11.6;86.4;100320;;;;
2021/10/30 22:56:03;;;;;;;11.9;10.4;;;;;;;11.5;86.2;100320;;;;
2021/10/30 23:06:02;;;;;;;11.9;10.4;;;;;;;11.4;86.1;100330;;;;
2021/10/30 23:10:02;;;;;;;11.9;10.4;;;;;;;11.5;86.4;100330;;;;
2021/10/30 23:12:04;;;;;;;13.6;9.9;;;;;;;11.4;86.2;100330;;;;
2021/10/30 23:22:02;;;;;;;13.6;9.9;;;;;;;11.3;86.4;100350;;;;
2021/10/30 23:24:02;;;;;;;13.6;9.9;;;;;;;11.4;86.5;100340;;;;
2021/10/30 23:26:02;;;;;;;13.6;9.9;;;;;;;11.3;86.7;100340;;;;
2021/10/30 23:30:02;;;;;;;13.6;9.9;;;;;;;11.4;86.2;100340;;;;
2021/10/30 23:36:02;;;;;;;13.3;9.7;;;;;;;11.3;86.1;100340;;;;
2021/10/30 23:46:02;;;;;;;13.3;9.7;;;;;;;11.2;86.4;100360;;;;
2021/10/30 23:52:02;;;;;;;12.9;9.8;;;;;;;11.1;86.3;100360;;;;
2021/10/30 23:54:02;;;;;;;12.9;9.8;;;;;;;11.2;86.4;100360;;;;
2021/10/30 23:56:02;;;;;;;12.9;9.8;;;;;;;11.1;86.4;100360;;;;
